sensor_id;sensor_type;location;lat;lon;timestamp;pressure;altitude;pressure_sealevel;temperature;humidity
49072;BME280;52656;52.610;10.236;2023-04-07T00:01:35;101264.94;;;4.30;50.63
49072;BME280;52656;52.610;10.236;2023-04-07T00:04:01;101270.19;;;4.36;50.34
49072;BME280;52656;52.610;10.236;2023-04-07T00:06:26;101268.44;;;4.30;50.61
49072;BME280;52656;52.610;10.236;2023-04-07T00:08:52;101268.53;;;4.12;50.93
49072;BME280;52656;52.610;10.236;2023-04-07T00:11:17;101265.78;;;4.35;50.32
49072;BME280;52656;52.610;10.236;2023-04-07T00:13:43;101260.59;;;4.29;50.74
49072;BME280;52656;52.610;10.236;2023-04-07T00:16:08;101267.63;;;4.24;50.91
49072;BME280;52656;52.610;10.236;2023-04-07T00:18:33;101260.63;;;4.23;50.69
49072;BME280;52656;52.610;10.236;2023-04-07T00:20:59;101268.50;;;4.17;51.00
49072;BME280;52656;52.610;10.236;2023-04-07T00:23:24;101269.38;;;4.17;50.89
49072;BME280;52656;52.610;10.236;2023-04-07T00:25:49;101260.66;;;4.15;50.89
49072;BME280;52656;52.610;10.236;2023-04-07T00:28:15;101260.66;;;4.20;50.82
49072;BME280;52656;52.610;10.236;2023-04-07T00:30:40;101256.34;;;4.09;51.05
49072;BME280;52656;52.610;10.236;2023-04-07T00:33:05;101257.13;;;4.21;50.93
49072;BME280;52656;52.610;10.236;2023-04-07T00:35:31;101261.56;;;4.11;51.07
49072;BME280;52656;52.610;10.236;2023-04-07T00:37:56;101262.50;;;4.01;51.18
49072;BME280;52656;52.610;10.236;2023-04-07T00:40:22;101260.69;;;4.10;51.31
49072;BME280;52656;52.610;10.236;2023-04-07T00:42:48;101261.59;;;3.99;51.18
49072;BME280;52656;52.610;10.236;2023-04-07T00:45:13;101254.66;;;3.93;51.70
49072;BME280;52656;52.610;10.236;2023-04-07T00:47:38;101255.47;;;4.03;51.37
49072;BME280;52656;52.610;10.236;2023-04-07T00:50:04;101259.03;;;3.93;51.51
49072;BME280;52656;52.610;10.236;2023-04-07T00:52:31;101252.03;;;3.87;51.16
49072;BME280;52656;52.610;10.236;2023-04-07T00:54:58;101249.44;;;3.92;51.41
49072;BME280;52656;52.610;10.236;2023-04-07T00:57:24;101256.41;;;3.83;51.62
49072;BME280;52656;52.610;10.236;2023-04-07T00:59:50;101252.91;;;3.88;51.39
49072;BME280;52656;52.610;10.236;2023-04-07T01:02:21;101251.13;;;3.90;51.23
49072;BME280;52656;52.610;10.236;2023-04-07T01:05:13;101251.16;;;3.80;51.55
49072;BME280;52656;52.610;10.236;2023-04-07T01:10:27;101247.69;;;3.81;51.23
49072;BME280;52656;52.610;10.236;2023-04-07T01:15:53;101246.81;;;3.72;51.95
49072;BME280;52656;52.610;10.236;2023-04-07T01:18:24;101242.44;;;3.78;51.67
49072;BME280;52656;52.610;10.236;2023-04-07T01:20:50;101251.25;;;3.64;51.91
49072;BME280;52656;52.610;10.236;2023-04-07T01:26:19;101243.34;;;3.67;51.91
49072;BME280;52656;52.610;10.236;2023-04-07T01:29:03;101241.66;;;3.49;52.65
49072;BME280;52656;52.610;10.236;2023-04-07T01:31:32;101253.03;;;3.42;52.51
49072;BME280;52656;52.610;10.236;2023-04-07T01:33:59;101258.25;;;3.52;52.30
49072;BME280;52656;52.610;10.236;2023-04-07T01:36:26;101260.00;;;3.52;52.54
49072;BME280;52656;52.610;10.236;2023-04-07T01:38:57;101257.38;;;3.49;52.43
49072;BME280;52656;52.610;10.236;2023-04-07T01:41:24;101255.69;;;3.32;52.41
49072;BME280;52656;52.610;10.236;2023-04-07T01:43:51;101257.41;;;3.26;52.97
49072;BME280;52656;52.610;10.236;2023-04-07T01:46:18;101253.09;;;3.11;53.21
49072;BME280;52656;52.610;10.236;2023-04-07T01:48:44;101254.84;;;3.14;53.10
49072;BME280;52656;52.610;10.236;2023-04-07T01:51:09;101255.72;;;3.06;53.55
49072;BME280;52656;52.610;10.236;2023-04-07T01:53:38;101264.44;;;3.07;53.67
49072;BME280;52656;52.610;10.236;2023-04-07T01:56:04;101267.06;;;3.01;53.89
49072;BME280;52656;52.610;10.236;2023-04-07T01:58:30;101262.69;;;3.03;53.72
49072;BME280;52656;52.610;10.236;2023-04-07T02:00:55;101260.94;;;2.93;54.03
49072;BME280;52656;52.610;10.236;2023-04-07T02:03:30;101271.41;;;2.85;54.66
49072;BME280;52656;52.610;10.236;2023-04-07T02:06:01;101266.16;;;2.76;54.52
49072;BME280;52656;52.610;10.236;2023-04-07T02:08:29;101264.41;;;2.66;55.05
49072;BME280;52656;52.610;10.236;2023-04-07T02:10:57;101270.53;;;2.66;55.01
49072;BME280;52656;52.610;10.236;2023-04-07T02:13:25;101270.53;;;2.66;55.14
49072;BME280;52656;52.610;10.236;2023-04-07T02:15:52;101270.53;;;2.60;55.46
49072;BME280;52656;52.610;10.236;2023-04-07T02:18:21;101267.03;;;2.63;55.43
49072;BME280;52656;52.610;10.236;2023-04-07T02:20:48;101268.75;;;2.57;55.27
49072;BME280;52656;52.610;10.236;2023-04-07T02:23:14;101265.28;;;2.68;55.40
49072;BME280;52656;52.610;10.236;2023-04-07T02:25:40;101260.91;;;2.41;55.87
49072;BME280;52656;52.610;10.236;2023-04-07T02:28:05;101264.41;;;2.46;55.78
49072;BME280;52656;52.610;10.236;2023-04-07T02:30:31;101263.53;;;2.56;55.46
49072;BME280;52656;52.610;10.236;2023-04-07T02:32:57;101267.84;;;2.40;56.13
49072;BME280;52656;52.610;10.236;2023-04-07T02:35:23;101266.13;;;2.44;56.24
49072;BME280;52656;52.610;10.236;2023-04-07T02:37:49;101266.09;;;2.30;56.47
49072;BME280;52656;52.610;10.236;2023-04-07T02:40:14;101279.16;;;2.27;56.49
49072;BME280;52656;52.610;10.236;2023-04-07T02:42:40;101268.69;;;2.25;57.02
49072;BME280;52656;52.610;10.236;2023-04-07T02:45:07;101274.78;;;2.21;57.05
49072;BME280;52656;52.610;10.236;2023-04-07T02:47:34;101268.63;;;2.08;57.42
49072;BME280;52656;52.610;10.236;2023-04-07T02:49:59;101274.78;;;2.17;57.46
49072;BME280;52656;52.610;10.236;2023-04-07T02:52:24;101275.59;;;2.08;57.42
49072;BME280;52656;52.610;10.236;2023-04-07T02:54:50;101271.31;;;2.21;57.42
49072;BME280;52656;52.610;10.236;2023-04-07T02:57:15;101281.75;;;2.27;57.22
49072;BME280;52656;52.610;10.236;2023-04-07T02:59:41;101279.16;;;2.27;57.38
49072;BME280;52656;52.610;10.236;2023-04-07T03:02:06;101285.25;;;2.23;57.63
49072;BME280;52656;52.610;10.236;2023-04-07T03:04:31;101285.25;;;2.20;57.27
49072;BME280;52656;52.610;10.236;2023-04-07T03:06:57;101276.50;;;2.13;57.63
49072;BME280;52656;52.610;10.236;2023-04-07T03:09:23;101272.16;;;2.09;57.95
49072;BME280;52656;52.610;10.236;2023-04-07T03:11:48;101279.91;;;1.94;58.53
49072;BME280;52656;52.610;10.236;2023-04-07T03:14:13;101277.28;;;1.89;58.54
49072;BME280;52656;52.610;10.236;2023-04-07T03:16:40;101282.50;;;1.83;59.13
49072;BME280;52656;52.610;10.236;2023-04-07T03:19:05;101282.47;;;1.78;59.51
49072;BME280;52656;52.610;10.236;2023-04-07T03:21:31;101278.09;;;1.76;58.99
49072;BME280;52656;52.610;10.236;2023-04-07T03:23:56;101292.06;;;1.86;59.17
49072;BME280;52656;52.610;10.236;2023-04-07T03:26:22;101285.16;;;1.95;58.80
49072;BME280;52656;52.610;10.236;2023-04-07T03:28:48;101279.84;;;1.78;59.13
49072;BME280;52656;52.610;10.236;2023-04-07T03:31:13;101277.31;;;1.95;58.56
49072;BME280;52656;52.610;10.236;2023-04-07T03:33:38;101279.88;;;1.85;58.87
49072;BME280;52656;52.610;10.236;2023-04-07T03:36:04;101277.25;;;1.78;58.95
49072;BME280;52656;52.610;10.236;2023-04-07T03:38:30;101279.88;;;1.89;58.91
49072;BME280;52656;52.610;10.236;2023-04-07T03:40:55;101279.00;;;1.83;59.19
49072;BME280;52656;52.610;10.236;2023-04-07T03:43:21;101285.94;;;1.74;59.38
49072;BME280;52656;52.610;10.236;2023-04-07T03:45:46;101282.47;;;1.78;59.07
49072;BME280;52656;52.610;10.236;2023-04-07T03:48:12;101282.41;;;1.72;59.25
49072;BME280;52656;52.610;10.236;2023-04-07T03:50:38;101282.47;;;1.80;59.20
49072;BME280;52656;52.610;10.236;2023-04-07T03:53:04;101287.66;;;1.74;59.17
49072;BME280;52656;52.610;10.236;2023-04-07T03:55:30;101288.47;;;1.67;59.33
49072;BME280;52656;52.610;10.236;2023-04-07T03:57:55;101293.69;;;1.59;59.51
49072;BME280;52656;52.610;10.236;2023-04-07T04:00:21;101295.47;;;1.71;59.15
49072;BME280;52656;52.610;10.236;2023-04-07T04:02:46;101299.84;;;1.73;59.03
49072;BME280;52656;52.610;10.236;2023-04-07T04:05:11;101291.91;;;1.58;59.06
49072;BME280;52656;52.610;10.236;2023-04-07T04:07:37;101304.16;;;1.65;59.10
49072;BME280;52656;52.610;10.236;2023-04-07T04:10:02;101311.88;;;1.48;59.76
49072;BME280;52656;52.610;10.236;2023-04-07T04:12:28;101302.41;;;1.67;58.80
49072;BME280;52656;52.610;10.236;2023-04-07T04:14:53;101306.69;;;1.51;59.40
49072;BME280;52656;52.610;10.236;2023-04-07T04:17:18;101308.47;;;1.63;59.28
49072;BME280;52656;52.610;10.236;2023-04-07T04:19:44;101312.72;;;1.43;59.23
49072;BME280;52656;52.610;10.236;2023-04-07T04:22:09;101308.53;;;1.71;58.73
49072;BME280;52656;52.610;10.236;2023-04-07T04:24:34;101301.53;;;1.67;58.35
49072;BME280;52656;52.610;10.236;2023-04-07T04:27:00;101310.22;;;1.61;59.04
49072;BME280;52656;52.610;10.236;2023-04-07T04:29:26;101310.25;;;1.64;58.61
49072;BME280;52656;52.610;10.236;2023-04-07T04:31:51;101311.84;;;1.41;58.87
49072;BME280;52656;52.610;10.236;2023-04-07T04:34:16;101323.28;;;1.63;58.64
49072;BME280;52656;52.610;10.236;2023-04-07T04:36:42;101309.38;;;1.65;58.50
49072;BME280;52656;52.610;10.236;2023-04-07T04:39:07;101312.75;;;1.47;58.95
49072;BME280;52656;52.610;10.236;2023-04-07T04:41:33;101317.91;;;1.37;58.65
49072;BME280;52656;52.610;10.236;2023-04-07T04:43:58;101314.44;;;1.36;59.11
49072;BME280;52656;52.610;10.236;2023-04-07T04:46:24;101323.19;;;1.47;58.57
49072;BME280;52656;52.610;10.236;2023-04-07T04:48:49;101318.78;;;1.40;58.71
49072;BME280;52656;52.610;10.236;2023-04-07T04:51:16;101318.91;;;1.55;58.32
49072;BME280;52656;52.610;10.236;2023-04-07T04:53:42;101327.66;;;1.67;57.93
49072;BME280;52656;52.610;10.236;2023-04-07T04:56:07;101325.00;;;1.58;58.13
49072;BME280;52656;52.610;10.236;2023-04-07T04:58:33;101325.88;;;1.60;57.83
49072;BME280;52656;52.610;10.236;2023-04-07T05:00:59;101323.34;;;1.70;57.45
49072;BME280;52656;52.610;10.236;2023-04-07T05:03:26;101328.47;;;1.58;57.76
49072;BME280;52656;52.610;10.236;2023-04-07T05:05:51;101332.94;;;1.73;57.22
49072;BME280;52656;52.610;10.236;2023-04-07T05:08:17;101332.13;;;1.89;56.42
49072;BME280;52656;52.610;10.236;2023-04-07T05:10:42;101329.53;;;1.89;56.55
49072;BME280;52656;52.610;10.236;2023-04-07T05:13:07;101329.56;;;1.98;56.54
49072;BME280;52656;52.610;10.236;2023-04-07T05:15:33;101328.72;;;2.02;56.22
49072;BME280;52656;52.610;10.236;2023-04-07T05:17:58;101327.88;;;2.06;56.04
49072;BME280;52656;52.610;10.236;2023-04-07T05:20:23;101326.22;;;2.24;56.07
49072;BME280;52656;52.610;10.236;2023-04-07T05:22:49;101329.69;;;2.20;56.40
49072;BME280;52656;52.610;10.236;2023-04-07T05:25:14;101328.81;;;2.25;55.94
49072;BME280;52656;52.610;10.236;2023-04-07T05:27:40;101334.03;;;2.22;55.97
49072;BME280;52656;52.610;10.236;2023-04-07T05:30:06;101327.06;;;2.24;55.84
49072;BME280;52656;52.610;10.236;2023-04-07T05:32:31;101327.94;;;2.25;56.20
49072;BME280;52656;52.610;10.236;2023-04-07T05:34:56;101334.91;;;2.24;56.18
49072;BME280;52656;52.610;10.236;2023-04-07T05:37:22;101334.09;;;2.36;56.00
49072;BME280;52656;52.610;10.236;2023-04-07T05:39:47;101344.50;;;2.24;55.83
49072;BME280;52656;52.610;10.236;2023-04-07T05:42:12;101340.16;;;2.23;55.63
49072;BME280;52656;52.610;10.236;2023-04-07T05:44:38;101342.78;;;2.23;54.67
49072;BME280;52656;52.610;10.236;2023-04-07T05:47:03;101342.81;;;2.38;54.63
49072;BME280;52656;52.610;10.236;2023-04-07T05:49:33;101336.69;;;2.30;54.55
49072;BME280;52656;52.610;10.236;2023-04-07T05:51:58;101348.06;;;2.43;54.02
49072;BME280;52656;52.610;10.236;2023-04-07T05:54:24;101351.59;;;2.72;53.12
49072;BME280;52656;52.610;10.236;2023-04-07T05:56:49;101357.72;;;2.68;52.91
49072;BME280;52656;52.610;10.236;2023-04-07T05:59:15;101356.00;;;2.82;52.31
49072;BME280;52656;52.610;10.236;2023-04-07T06:01:41;101351.69;;;3.01;51.86
49072;BME280;52656;52.610;10.236;2023-04-07T06:04:06;101364.75;;;3.17;51.51
49072;BME280;52656;52.610;10.236;2023-04-07T06:06:32;101364.78;;;3.50;50.36
49072;BME280;52656;52.610;10.236;2023-04-07T06:08:57;101367.41;;;3.46;50.56
49072;BME280;52656;52.610;10.236;2023-04-07T06:11:22;101363.00;;;3.74;50.28
49072;BME280;52656;52.610;10.236;2023-04-07T06:13:48;101363.03;;;3.55;49.79
49072;BME280;52656;52.610;10.236;2023-04-07T06:16:13;101369.06;;;4.02;49.42
49072;BME280;52656;52.610;10.236;2023-04-07T06:18:39;101369.06;;;3.85;48.82
49072;BME280;52656;52.610;10.236;2023-04-07T06:21:05;101362.03;;;4.19;48.64
49072;BME280;52656;52.610;10.236;2023-04-07T06:23:30;101364.13;;;5.14;46.41
49072;BME280;52656;52.610;10.236;2023-04-07T06:25:55;101367.00;;;6.63;43.38
49072;BME280;52656;52.610;10.236;2023-04-07T06:28:21;101361.09;;;7.60;40.96
49072;BME280;52656;52.610;10.236;2023-04-07T06:30:46;101356.22;;;9.11;38.34
49072;BME280;52656;52.610;10.236;2023-04-07T06:33:12;101349.28;;;10.40;36.56
49072;BME280;52656;52.610;10.236;2023-04-07T06:35:38;101345.06;;;12.22;33.23
49072;BME280;52656;52.610;10.236;2023-04-07T06:38:04;101348.69;;;11.69;33.05
49072;BME280;52656;52.610;10.236;2023-04-07T06:40:29;101349.22;;;12.98;32.14
49072;BME280;52656;52.610;10.236;2023-04-07T06:42:54;101341.03;;;13.25;31.82
49072;BME280;52656;52.610;10.236;2023-04-07T06:45:20;101349.19;;;12.29;31.47
49072;BME280;52656;52.610;10.236;2023-04-07T06:47:45;101343.88;;;13.42;30.50
49072;BME280;52656;52.610;10.236;2023-04-07T06:50:11;101349.97;;;12.08;32.16
49072;BME280;52656;52.610;10.236;2023-04-07T06:52:36;101364.72;;;11.66;32.72
49072;BME280;52656;52.610;10.236;2023-04-07T06:55:01;101358.44;;;13.11;30.03
49072;BME280;52656;52.610;10.236;2023-04-07T06:57:27;101347.47;;;14.22;29.63
49072;BME280;52656;52.610;10.236;2023-04-07T06:59:53;101350.22;;;13.17;30.26
49072;BME280;52656;52.610;10.236;2023-04-07T07:02:18;101361.06;;;12.89;30.48
49072;BME280;52656;52.610;10.236;2023-04-07T07:04:43;101358.31;;;13.99;29.60
49072;BME280;52656;52.610;10.236;2023-04-07T07:07:09;101355.09;;;14.88;28.94
49072;BME280;52656;52.610;10.236;2023-04-07T07:09:34;101342.25;;;16.02;27.35
49072;BME280;52656;52.610;10.236;2023-04-07T07:11:59;101359.03;;;14.98;28.84
49072;BME280;52656;52.610;10.236;2023-04-07T07:14:26;101352.06;;;16.99;26.56
49072;BME280;52656;52.610;10.236;2023-04-07T07:16:52;101347.91;;;17.10;26.68
49072;BME280;52656;52.610;10.236;2023-04-07T07:19:17;101341.13;;;16.72;26.83
49072;BME280;52656;52.610;10.236;2023-04-07T07:21:42;101352.66;;;15.91;26.91
49072;BME280;52656;52.610;10.236;2023-04-07T07:24:07;101352.38;;;15.61;26.63
49072;BME280;52656;52.610;10.236;2023-04-07T07:26:33;101361.38;;;14.87;27.17
49072;BME280;52656;52.610;10.236;2023-04-07T07:28:58;101371.69;;;13.77;28.52
49072;BME280;52656;52.610;10.236;2023-04-07T07:31:23;101361.25;;;15.61;27.30
49072;BME280;52656;52.610;10.236;2023-04-07T07:33:49;101365.63;;;16.32;25.95
49072;BME280;52656;52.610;10.236;2023-04-07T07:36:15;101367.63;;;16.77;25.76
49072;BME280;52656;52.610;10.236;2023-04-07T07:38:41;101364.81;;;16.63;25.61
49072;BME280;52656;52.610;10.236;2023-04-07T07:41:06;101379.13;;;14.10;27.31
49072;BME280;52656;52.610;10.236;2023-04-07T07:43:32;101380.78;;;15.81;27.13
49072;BME280;52656;52.610;10.236;2023-04-07T07:45:57;101375.53;;;17.10;25.66
49072;BME280;52656;52.610;10.236;2023-04-07T07:48:23;101373.03;;;16.27;25.53
49072;BME280;52656;52.610;10.236;2023-04-07T07:50:48;101374.91;;;17.37;25.06
49072;BME280;52656;52.610;10.236;2023-04-07T07:53:14;101373.88;;;17.23;24.96
49072;BME280;52656;52.610;10.236;2023-04-07T07:55:40;101377.88;;;16.69;25.44
49072;BME280;52656;52.610;10.236;2023-04-07T07:58:05;101379.28;;;16.25;25.66
49072;BME280;52656;52.610;10.236;2023-04-07T08:00:30;101384.16;;;16.35;25.93
49072;BME280;52656;52.610;10.236;2023-04-07T08:02:56;101394.19;;;16.14;26.16
49072;BME280;52656;52.610;10.236;2023-04-07T08:05:21;101392.41;;;16.30;25.55
49072;BME280;52656;52.610;10.236;2023-04-07T08:07:47;101414.28;;;14.96;27.18
49072;BME280;52656;52.610;10.236;2023-04-07T08:10:13;101387.31;;;16.59;25.63
49072;BME280;52656;52.610;10.236;2023-04-07T08:12:38;101391.00;;;16.40;25.94
49072;BME280;52656;52.610;10.236;2023-04-07T08:15:04;101397.09;;;16.09;26.42
49072;BME280;52656;52.610;10.236;2023-04-07T08:17:30;101390.16;;;17.50;25.13
49072;BME280;52656;52.610;10.236;2023-04-07T08:19:55;101397.50;;;16.68;25.33
49072;BME280;52656;52.610;10.236;2023-04-07T08:22:21;101390.25;;;17.65;24.79
49072;BME280;52656;52.610;10.236;2023-04-07T08:24:46;101403.50;;;16.89;25.14
49072;BME280;52656;52.610;10.236;2023-04-07T08:27:12;101402.72;;;16.38;25.50
49072;BME280;52656;52.610;10.236;2023-04-07T08:29:38;101407.22;;;16.20;25.63
49072;BME280;52656;52.610;10.236;2023-04-07T08:32:04;101389.09;;;16.42;25.08
49072;BME280;52656;52.610;10.236;2023-04-07T08:34:29;101410.63;;;15.35;26.61
49072;BME280;52656;52.610;10.236;2023-04-07T08:36:55;101415.75;;;15.40;26.30
49072;BME280;52656;52.610;10.236;2023-04-07T08:39:20;101408.41;;;14.30;27.41
49072;BME280;52656;52.610;10.236;2023-04-07T08:41:47;101419.06;;;14.30;27.59
49072;BME280;52656;52.610;10.236;2023-04-07T08:44:14;101420.44;;;14.59;27.61
49072;BME280;52656;52.610;10.236;2023-04-07T08:46:40;101409.09;;;14.74;27.32
49072;BME280;52656;52.610;10.236;2023-04-07T08:49:09;101408.91;;;15.88;26.03
49072;BME280;52656;52.610;10.236;2023-04-07T08:51:36;101414.94;;;16.26;26.26
49072;BME280;52656;52.610;10.236;2023-04-07T08:54:16;101406.03;;;17.23;25.43
49072;BME280;52656;52.610;10.236;2023-04-07T08:56:46;101401.94;;;17.32;25.46
49072;BME280;52656;52.610;10.236;2023-04-07T08:59:12;101409.72;;;15.71;26.18
49072;BME280;52656;52.610;10.236;2023-04-07T09:01:39;101407.66;;;16.79;26.01
49072;BME280;52656;52.610;10.236;2023-04-07T09:04:05;101408.41;;;16.32;25.30
49072;BME280;52656;52.610;10.236;2023-04-07T09:06:35;101402.84;;;17.01;25.75
49072;BME280;52656;52.610;10.236;2023-04-07T09:09:01;101412.38;;;15.71;25.71
49072;BME280;52656;52.610;10.236;2023-04-07T09:11:27;101426.50;;;15.74;26.01
49072;BME280;52656;52.610;10.236;2023-04-07T09:13:54;101425.16;;;15.83;25.77
49072;BME280;52656;52.610;10.236;2023-04-07T09:16:19;101416.44;;;16.14;25.36
49072;BME280;52656;52.610;10.236;2023-04-07T09:18:46;101408.66;;;16.10;25.47
49072;BME280;52656;52.610;10.236;2023-04-07T09:21:11;101422.41;;;16.02;25.25
49072;BME280;52656;52.610;10.236;2023-04-07T09:23:37;101412.41;;;16.23;25.53
49072;BME280;52656;52.610;10.236;2023-04-07T09:26:23;101422.16;;;15.72;25.39
49072;BME280;52656;52.610;10.236;2023-04-07T09:28:54;101408.41;;;16.47;25.96
49072;BME280;52656;52.610;10.236;2023-04-07T09:31:21;101409.38;;;16.80;24.81
49072;BME280;52656;52.610;10.236;2023-04-07T09:33:48;101398.00;;;16.92;24.48
49072;BME280;52656;52.610;10.236;2023-04-07T09:36:13;101413.63;;;16.66;24.52
49072;BME280;52656;52.610;10.236;2023-04-07T09:38:39;101425.34;;;15.61;25.25
49072;BME280;52656;52.610;10.236;2023-04-07T09:41:07;101418.19;;;15.44;24.82
49072;BME280;52656;52.610;10.236;2023-04-07T09:43:34;101434.25;;;15.07;24.93
49072;BME280;52656;52.610;10.236;2023-04-07T09:46:14;101428.72;;;15.65;25.11
49072;BME280;52656;52.610;10.236;2023-04-07T09:48:41;101422.72;;;15.42;25.45
49072;BME280;52656;52.610;10.236;2023-04-07T09:51:11;101423.53;;;15.62;25.21
49072;BME280;52656;52.610;10.236;2023-04-07T09:56:09;101413.41;;;15.51;25.76
49072;BME280;52656;52.610;10.236;2023-04-07T09:58:37;101421.63;;;15.83;25.98
49072;BME280;52656;52.610;10.236;2023-04-07T10:01:06;101408.22;;;15.65;26.23
49072;BME280;52656;52.610;10.236;2023-04-07T10:03:33;101416.31;;;15.64;25.89
49072;BME280;52656;52.610;10.236;2023-04-07T10:05:59;101419.75;;;15.48;26.59
49072;BME280;52656;52.610;10.236;2023-04-07T10:08:26;101408.81;;;14.99;26.77
49072;BME280;52656;52.610;10.236;2023-04-07T10:10:51;101412.91;;;15.43;27.25
49072;BME280;52656;52.610;10.236;2023-04-07T10:13:18;101419.59;;;15.52;26.88
49072;BME280;52656;52.610;10.236;2023-04-07T10:15:44;101415.34;;;15.84;27.10
49072;BME280;52656;52.610;10.236;2023-04-07T10:18:10;101424.84;;;15.53;26.90
49072;BME280;52656;52.610;10.236;2023-04-07T10:20:39;101413.75;;;15.62;26.76
49072;BME280;52656;52.610;10.236;2023-04-07T10:23:15;101413.31;;;15.16;27.20
49072;BME280;52656;52.610;10.236;2023-04-07T10:25:42;101414.28;;;15.69;27.02
49072;BME280;52656;52.610;10.236;2023-04-07T10:28:11;101412.50;;;15.33;27.48
49072;BME280;52656;52.610;10.236;2023-04-07T10:30:37;101408.63;;;15.58;27.27
49072;BME280;52656;52.610;10.236;2023-04-07T10:33:03;101412.97;;;15.05;27.82
49072;BME280;52656;52.610;10.236;2023-04-07T10:35:29;101407.78;;;15.02;27.54
49072;BME280;52656;52.610;10.236;2023-04-07T10:38:14;101419.94;;;15.08;28.34
49072;BME280;52656;52.610;10.236;2023-04-07T10:40:41;101414.41;;;14.93;27.86
49072;BME280;52656;52.610;10.236;2023-04-07T10:43:07;101408.28;;;14.33;28.35
49072;BME280;52656;52.610;10.236;2023-04-07T10:48:14;101402.88;;;15.12;28.16
49072;BME280;52656;52.610;10.236;2023-04-07T10:50:40;101401.63;;;15.55;27.98
49072;BME280;52656;52.610;10.236;2023-04-07T10:53:11;101410.16;;;14.89;27.40
49072;BME280;52656;52.610;10.236;2023-04-07T10:55:44;101410.53;;;14.82;28.32
49072;BME280;52656;52.610;10.236;2023-04-07T11:03:22;101413.09;;;14.05;28.16
49072;BME280;52656;52.610;10.236;2023-04-07T11:05:48;101406.16;;;14.60;28.41
49072;BME280;52656;52.610;10.236;2023-04-07T11:08:13;101402.94;;;14.54;27.76
49072;BME280;52656;52.610;10.236;2023-04-07T11:10:39;101402.28;;;14.67;28.21
49072;BME280;52656;52.610;10.236;2023-04-07T11:13:11;101406.22;;;14.40;28.69
49072;BME280;52656;52.610;10.236;2023-04-07T11:15:36;101403.22;;;14.27;29.17
49072;BME280;52656;52.610;10.236;2023-04-07T11:18:18;101402.28;;;14.08;28.53
49072;BME280;52656;52.610;10.236;2023-04-07T11:20:49;101408.09;;;13.55;29.27
49072;BME280;52656;52.610;10.236;2023-04-07T11:23:17;101412.44;;;13.13;29.51
49072;BME280;52656;52.610;10.236;2023-04-07T11:25:44;101403.84;;;13.29;30.36
49072;BME280;52656;52.610;10.236;2023-04-07T11:28:11;101404.03;;;13.46;29.43
49072;BME280;52656;52.610;10.236;2023-04-07T11:30:37;101406.31;;;13.33;30.15
49072;BME280;52656;52.610;10.236;2023-04-07T11:33:03;101402.50;;;12.73;30.39
49072;BME280;52656;52.610;10.236;2023-04-07T11:35:28;101410.22;;;12.79;30.26
49072;BME280;52656;52.610;10.236;2023-04-07T11:37:58;101411.78;;;12.85;30.42
49072;BME280;52656;52.610;10.236;2023-04-07T11:40:33;101412.34;;;12.93;30.58
49072;BME280;52656;52.610;10.236;2023-04-07T11:42:58;101406.63;;;12.58;31.05
49072;BME280;52656;52.610;10.236;2023-04-07T11:45:24;101414.63;;;12.57;30.19
49072;BME280;52656;52.610;10.236;2023-04-07T11:47:50;101406.66;;;12.57;30.41
49072;BME280;52656;52.610;10.236;2023-04-07T11:50:15;101393.94;;;12.65;30.51
49072;BME280;52656;52.610;10.236;2023-04-07T11:52:44;101402.31;;;12.29;30.86
49072;BME280;52656;52.610;10.236;2023-04-07T11:55:28;101409.69;;;12.46;30.72
49072;BME280;52656;52.610;10.236;2023-04-07T11:57:54;101413.19;;;12.23;31.15
49072;BME280;52656;52.610;10.236;2023-04-07T12:00:19;101414.66;;;12.32;30.62
49072;BME280;52656;52.610;10.236;2023-04-07T12:02:45;101413.78;;;12.31;30.24
49072;BME280;52656;52.610;10.236;2023-04-07T12:05:10;101411.78;;;12.13;30.48
49072;BME280;52656;52.610;10.236;2023-04-07T12:07:36;101414.44;;;12.13;30.64
49072;BME280;52656;52.610;10.236;2023-04-07T12:10:22;101407.81;;;12.25;29.91
49072;BME280;52656;52.610;10.236;2023-04-07T12:12:48;101407.66;;;12.54;30.83
49072;BME280;52656;52.610;10.236;2023-04-07T12:15:13;101418.69;;;12.42;30.83
49072;BME280;52656;52.610;10.236;2023-04-07T12:17:44;101404.59;;;12.40;30.58
49072;BME280;52656;52.610;10.236;2023-04-07T12:20:11;101411.56;;;12.42;30.68
49072;BME280;52656;52.610;10.236;2023-04-07T12:22:37;101406.53;;;12.60;30.12
49072;BME280;52656;52.610;10.236;2023-04-07T12:25:02;101405.09;;;12.51;31.23
49072;BME280;52656;52.610;10.236;2023-04-07T12:27:27;101403.69;;;12.88;30.94
49072;BME280;52656;52.610;10.236;2023-04-07T12:29:52;101422.50;;;12.60;30.26
49072;BME280;52656;52.610;10.236;2023-04-07T12:32:18;101411.16;;;12.55;30.92
49072;BME280;52656;52.610;10.236;2023-04-07T12:34:43;101401.13;;;12.63;31.57
49072;BME280;52656;52.610;10.236;2023-04-07T12:37:09;101409.84;;;12.41;31.44
49072;BME280;52656;52.610;10.236;2023-04-07T12:39:34;101406.66;;;12.32;32.24
49072;BME280;52656;52.610;10.236;2023-04-07T12:41:59;101405.91;;;12.28;31.54
49072;BME280;52656;52.610;10.236;2023-04-07T12:44:24;101410.63;;;12.20;32.19
49072;BME280;52656;52.610;10.236;2023-04-07T12:46:50;101403.44;;;12.47;31.10
49072;BME280;52656;52.610;10.236;2023-04-07T12:49:15;101414.00;;;12.00;29.79
49072;BME280;52656;52.610;10.236;2023-04-07T12:51:40;101408.69;;;12.50;30.75
49072;BME280;52656;52.610;10.236;2023-04-07T12:54:06;101407.03;;;12.46;31.79
49072;BME280;52656;52.610;10.236;2023-04-07T12:56:31;101421.56;;;12.11;31.88
49072;BME280;52656;52.610;10.236;2023-04-07T12:58:56;101407.91;;;12.21;31.94
49072;BME280;52656;52.610;10.236;2023-04-07T13:01:21;101401.66;;;12.47;31.19